Time;durP1;ratioP1;P1;durP2;ratioP2;P2;SDS_P1;SDS_P2;PMS_P1;PMS_P2;Temp;Humidity;BMP_temperature;BMP_pressure;BME280_temperature;BME280_humidity;BME280_pressure;Samples;Min_cycle;Max_cycle;Signal;HPM_P1;HPM_P2
2022/03/02 00:02:04;;;;;;;;;;;21.80;49.80;;;;;;5035227;28;975;-42
2022/03/02 00:04:32;;;;;;;;;;;21.70;49.70;;;;;;5036116;28;980;-38
2022/03/02 00:06:59;;;;;;;;;;;21.80;49.80;;;;;;5035121;28;1042;-37
2022/03/02 00:09:26;;;;;;;;;;;21.80;49.80;;;;;;5036024;28;1898;-38
2022/03/02 00:11:52;;;;;;;;;;;21.80;49.80;;;;;;5035331;28;1172;-37
2022/03/02 00:14:19;;;;;;;;;;;21.80;50.70;;;;;;5036068;28;921;-38
2022/03/02 00:16:46;;;;;;;;;;;21.70;49.70;;;;;;5036302;28;916;-38
2022/03/02 00:19:12;;;;;;;;;;;21.70;49.70;;;;;;5035364;28;1102;-38
2022/03/02 00:21:40;;;;;;;;;;;21.80;49.60;;;;;;5035597;28;980;-38
2022/03/02 00:24:08;;;;;;;;;;;21.70;49.70;;;;;;5035255;28;987;-38
2022/03/02 00:26:35;;;;;;;;;;;21.70;49.60;;;;;;5034694;28;945;-38
2022/03/02 00:29:02;;;;;;;;;;;21.80;49.60;;;;;;5034247;28;1000;-38
2022/03/02 00:31:29;;;;;;;;;;;21.80;49.50;;;;;;5035728;28;1901;-37
2022/03/02 00:33:56;;;;;;;;;;;21.70;49.50;;;;;;5036148;28;1007;-38
2022/03/02 00:36:24;;;;;;;;;;;21.70;49.60;;;;;;5035814;28;1004;-38
2022/03/02 00:38:52;;;;;;;;;;;21.80;49.50;;;;;;5036317;28;941;-38
2022/03/02 00:41:19;;;;;;;;;;;21.80;49.60;;;;;;5035092;28;920;-38
2022/03/02 00:43:47;;;;;;;;;;;21.70;49.60;;;;;;5035309;28;1024;-38
2022/03/02 00:46:14;;;;;;;;;;;21.70;49.60;;;;;;5035661;28;1775;-38
2022/03/02 00:48:42;;;;;;;;;;;21.70;49.60;;;;;;5036024;28;1010;-38
2022/03/02 00:51:08;;;;;;;;;;;21.70;49.40;;;;;;5035137;28;1902;-38
2022/03/02 00:53:36;;;;;;;;;;;21.70;49.50;;;;;;5035124;28;976;-39
2022/03/02 00:56:04;;;;;;;;;;;21.70;49.50;;;;;;5035499;28;996;-38
2022/03/02 00:58:31;;;;;;;;;;;21.70;49.30;;;;;;5036093;28;927;-38
2022/03/02 01:00:58;;;;;;;;;;;21.70;49.40;;;;;;5035333;28;961;-37
2022/03/02 01:03:25;;;;;;;;;;;21.70;49.40;;;;;;5035418;28;1008;-38
2022/03/02 01:05:51;;;;;;;;;;;21.70;49.40;;;;;;5035305;28;961;-38
2022/03/02 01:08:18;;;;;;;;;;;21.70;49.50;;;;;;5035489;28;1137;-38
2022/03/02 01:10:45;;;;;;;;;;;21.70;49.40;;;;;;5035756;28;1979;-37
2022/03/02 01:13:13;;;;;;;;;;;21.70;49.40;;;;;;5035471;28;1022;-38
2022/03/02 01:15:40;;;;;;;;;;;21.70;49.40;;;;;;5035192;28;2085;-37
2022/03/02 01:18:07;;;;;;;;;;;21.70;49.40;;;;;;5035236;28;1002;-37
2022/03/02 01:20:34;;;;;;;;;;;21.80;49.40;;;;;;5036029;28;980;-37
2022/03/02 01:23:01;;;;;;;;;;;21.70;49.30;;;;;;5035154;28;997;-37
2022/03/02 01:25:28;;;;;;;;;;;21.70;49.40;;;;;;5035318;28;1094;-36
2022/03/02 01:27:55;;;;;;;;;;;21.70;49.20;;;;;;5035075;28;937;-37
2022/03/02 01:30:23;;;;;;;;;;;21.70;49.10;;;;;;5035087;28;1978;-36
2022/03/02 01:32:50;;;;;;;;;;;21.70;49.20;;;;;;5038338;28;1015;-37
2022/03/02 01:35:17;;;;;;;;;;;21.70;49.20;;;;;;5038683;28;916;-37
2022/03/02 01:37:44;;;;;;;;;;;21.70;49.10;;;;;;5038425;28;1007;-37
2022/03/02 01:40:10;;;;;;;;;;;21.70;49.20;;;;;;5038807;28;1020;-37
2022/03/02 01:42:37;;;;;;;;;;;21.70;49.30;;;;;;5038528;28;999;-37
2022/03/02 01:45:04;;;;;;;;;;;21.60;49.20;;;;;;5038773;28;1012;-36
2022/03/02 01:47:33;;;;;;;;;;;21.70;49.40;;;;;;5038338;28;923;-37
2022/03/02 01:50:00;;;;;;;;;;;21.70;49.40;;;;;;5037708;28;1902;-37
2022/03/02 01:52:27;;;;;;;;;;;21.70;49.30;;;;;;5037876;28;929;-37
2022/03/02 01:54:54;;;;;;;;;;;21.70;49.10;;;;;;5038241;28;1011;-36
2022/03/02 01:57:20;;;;;;;;;;;21.70;49.10;;;;;;5038346;28;937;-36
2022/03/02 01:59:47;;;;;;;;;;;21.60;50.30;;;;;;5038441;28;992;-37
2022/03/02 02:02:14;;;;;;;;;;;21.70;49.20;;;;;;5038181;28;944;-37
2022/03/02 02:04:42;;;;;;;;;;;21.70;49.20;;;;;;5037846;28;1004;-37
2022/03/02 02:07:08;;;;;;;;;;;21.70;49.20;;;;;;5038596;28;1282;-36
2022/03/02 02:09:35;;;;;;;;;;;21.60;49.10;;;;;;5038352;28;1015;-36
2022/03/02 02:12:02;;;;;;;;;;;21.60;49.10;;;;;;5038226;28;1004;-37
2022/03/02 02:14:28;;;;;;;;;;;21.60;49.20;;;;;;5038271;28;961;-36
2022/03/02 02:16:55;;;;;;;;;;;21.60;49.20;;;;;;5038347;28;921;-37
2022/03/02 02:19:22;;;;;;;;;;;21.60;49.20;;;;;;5037917;28;1012;-37
2022/03/02 02:21:50;;;;;;;;;;;21.60;49.30;;;;;;5038463;28;905;-37
2022/03/02 02:24:17;;;;;;;;;;;21.60;49.40;;;;;;5038264;28;1011;-37
2022/03/02 02:26:44;;;;;;;;;;;21.60;49.30;;;;;;5037682;28;1016;-37
2022/03/02 02:29:11;;;;;;;;;;;21.60;49.20;;;;;;5038204;28;913;-37
2022/03/02 02:31:37;;;;;;;;;;;21.60;49.20;;;;;;5038133;28;1910;-37
2022/03/02 02:34:04;;;;;;;;;;;21.60;49.10;;;;;;5037962;28;848;-37
2022/03/02 02:36:31;;;;;;;;;;;21.60;49.10;;;;;;5038110;28;948;-37
2022/03/02 02:38:59;;;;;;;;;;;21.60;49.20;;;;;;5038053;28;972;-37
2022/03/02 02:41:26;;;;;;;;;;;21.60;49.10;;;;;;5037903;28;939;-37
2022/03/02 02:43:53;;;;;;;;;;;21.50;49.30;;;;;;5036666;28;984;-37
2022/03/02 02:46:20;;;;;;;;;;;21.50;49.20;;;;;;5037451;28;952;-36
2022/03/02 02:48:47;;;;;;;;;;;21.50;49.30;;;;;;5037830;28;1019;-37
2022/03/02 02:51:13;;;;;;;;;;;21.50;49.20;;;;;;5037543;28;1898;-37
2022/03/02 02:53:40;;;;;;;;;;;21.50;49.30;;;;;;5037710;28;968;-37
2022/03/02 02:56:08;;;;;;;;;;;21.50;49.20;;;;;;5037879;28;1018;-37
2022/03/02 02:58:35;;;;;;;;;;;21.50;49.30;;;;;;5037537;28;976;-37
2022/03/02 03:01:02;;;;;;;;;;;21.50;49.30;;;;;;5037650;28;972;-37
2022/03/02 03:03:28;;;;;;;;;;;21.50;49.30;;;;;;5037324;28;988;-37
2022/03/02 03:05:55;;;;;;;;;;;21.50;49.30;;;;;;5037646;28;957;-37
2022/03/02 03:08:22;;;;;;;;;;;21.40;49.30;;;;;;5037378;28;1464;-37
2022/03/02 03:10:48;;;;;;;;;;;21.40;49.30;;;;;;5037488;28;1977;-37
2022/03/02 03:13:17;;;;;;;;;;;21.50;49.20;;;;;;5037294;28;1063;-38
2022/03/02 03:15:44;;;;;;;;;;;21.50;49.20;;;;;;5037386;28;1061;-37
2022/03/02 03:18:11;;;;;;;;;;;21.50;49.30;;;;;;5037591;28;988;-37
2022/03/02 03:20:39;;;;;;;;;;;21.50;49.30;;;;;;5037125;28;996;-37
2022/03/02 03:23:06;;;;;;;;;;;21.40;49.30;;;;;;5037266;28;929;-37
2022/03/02 03:25:33;;;;;;;;;;;21.40;49.30;;;;;;5036948;28;1015;-37
2022/03/02 03:28:37;;;;;;;;;;;21.40;49.20;;;;;;5037317;28;995;-37
2022/03/02 03:31:05;;;;;;;;;;;21.40;49.20;;;;;;5036478;28;1987;-37
2022/03/02 03:33:32;;;;;;;;;;;21.50;49.30;;;;;;5037053;28;1004;-37
2022/03/02 03:35:58;;;;;;;;;;;21.40;49.20;;;;;;5037044;28;956;-37
2022/03/02 03:38:25;;;;;;;;;;;21.40;49.30;;;;;;5036738;28;992;-37
2022/03/02 03:40:52;;;;;;;;;;;21.40;49.20;;;;;;5036828;28;976;-37
2022/03/02 03:43:19;;;;;;;;;;;21.40;49.40;;;;;;5036812;28;936;-37
2022/03/02 03:45:46;;;;;;;;;;;21.40;49.30;;;;;;5037150;28;984;-37
2022/03/02 03:48:14;;;;;;;;;;;21.40;49.40;;;;;;5036753;28;881;-37
2022/03/02 03:50:40;;;;;;;;;;;21.40;49.40;;;;;;5036788;28;1910;-37
2022/03/02 03:53:08;;;;;;;;;;;21.40;49.30;;;;;;5037270;28;933;-37
2022/03/02 03:55:35;;;;;;;;;;;21.40;49.30;;;;;;5036949;28;1014;-36
2022/03/02 03:58:01;;;;;;;;;;;21.40;49.30;;;;;;5036392;28;1011;-37
2022/03/02 04:00:28;;;;;;;;;;;21.40;49.20;;;;;;5036242;28;1024;-37
2022/03/02 04:02:55;;;;;;;;;;;21.40;49.10;;;;;;5036456;28;949;-36
2022/03/02 04:05:23;;;;;;;;;;;21.30;49.30;;;;;;5036267;28;1023;-37
2022/03/02 04:07:50;;;;;;;;;;;21.30;49.30;;;;;;5036513;28;1042;-37
2022/03/02 04:10:18;;;;;;;;;;;21.30;49.50;;;;;;5036165;28;1914;-37
2022/03/02 04:12:44;;;;;;;;;;;21.30;49.40;;;;;;5036190;28;1042;-37
2022/03/02 04:15:12;;;;;;;;;;;21.30;49.50;;;;;;5036150;28;1063;-37
2022/03/02 04:17:39;;;;;;;;;;;21.30;49.40;;;;;;5036377;28;979;-36
2022/03/02 04:20:06;;;;;;;;;;;21.30;49.30;;;;;;5036364;28;994;-37
2022/03/02 04:22:34;;;;;;;;;;;21.30;49.40;;;;;;5036232;28;999;-37
2022/03/02 04:25:01;;;;;;;;;;;21.30;49.30;;;;;;5036444;28;1046;-37
2022/03/02 04:27:27;;;;;;;;;;;21.30;49.40;;;;;;5036567;28;1011;-37
2022/03/02 04:29:55;;;;;;;;;;;21.30;49.30;;;;;;5036388;28;1033;-37
2022/03/02 04:32:21;;;;;;;;;;;21.30;49.30;;;;;;5036034;28;1914;-37
2022/03/02 04:34:48;;;;;;;;;;;21.30;49.20;;;;;;5035080;28;961;-37
2022/03/02 04:37:15;;;;;;;;;;;21.30;49.30;;;;;;5035650;28;946;-37
2022/03/02 04:39:43;;;;;;;;;;;21.30;49.10;;;;;;5035158;28;990;-37
2022/03/02 04:42:09;;;;;;;;;;;21.40;48.90;;;;;;5035628;28;1040;-37
2022/03/02 04:44:36;;;;;;;;;;;21.40;49.10;;;;;;5035249;28;979;-37
2022/03/02 04:47:03;;;;;;;;;;;21.50;49.10;;;;;;5035763;28;1099;-37
2022/03/02 04:49:30;;;;;;;;;;;21.60;49.10;;;;;;5035271;28;936;-37
2022/03/02 04:51:57;;;;;;;;;;;21.70;49.20;;;;;;5035112;28;1984;-37
2022/03/02 04:57:09;;;;;;;;;;;21.70;49.20;;;;;;5034825;28;684;-37
2022/03/02 04:59:37;;;;;;;;;;;21.70;49.20;;;;;;5034572;28;1163;-37
2022/03/02 05:02:04;;;;;;;;;;;21.80;49.30;;;;;;5034971;28;989;-37
2022/03/02 05:04:30;;;;;;;;;;;21.80;49.20;;;;;;5034654;28;948;-37
2022/03/02 05:06:57;;;;;;;;;;;21.80;49.30;;;;;;5033110;28;1232;-37
2022/03/02 05:09:24;;;;;;;;;;;21.90;49.30;;;;;;5034090;28;945;-37
2022/03/02 05:11:50;;;;;;;;;;;21.90;49.30;;;;;;5033848;28;1976;-37
2022/03/02 05:14:19;;;;;;;;;;;21.90;49.20;;;;;;5032628;28;940;-37
2022/03/02 05:16:45;;;;;;;;;;;22.00;49.30;;;;;;5032091;28;944;-37
2022/03/02 05:19:12;;;;;;;;;;;21.90;49.20;;;;;;5032678;28;932;-37
2022/03/02 05:21:39;;;;;;;;;;;22.00;49.30;;;;;;5032796;28;1006;-37
2022/03/02 05:24:06;;;;;;;;;;;21.90;49.30;;;;;;5032538;28;996;-37
2022/03/02 05:26:33;;;;;;;;;;;21.90;49.30;;;;;;5032284;28;964;-37
2022/03/02 05:28:59;;;;;;;;;;;21.90;49.40;;;;;;5033747;28;952;-36
2022/03/02 05:31:27;;;;;;;;;;;21.90;49.50;;;;;;5034338;28;1906;-36
2022/03/02 05:33:54;;;;;;;;;;;21.90;49.50;;;;;;5033188;28;944;-36
2022/03/02 05:36:21;;;;;;;;;;;21.90;49.50;;;;;;5032763;28;984;-37
2022/03/02 05:38:48;;;;;;;;;;;21.80;49.40;;;;;;5031975;28;1028;-37
2022/03/02 05:41:14;;;;;;;;;;;21.90;49.60;;;;;;5033397;28;941;-37
2022/03/02 05:43:41;;;;;;;;;;;21.90;49.40;;;;;;5032201;28;969;-36
2022/03/02 05:46:08;;;;;;;;;;;21.90;49.40;;;;;;5031457;28;1015;-37
2022/03/02 05:48:37;;;;;;;;;;;21.90;49.40;;;;;;5032614;28;940;-37
2022/03/02 05:51:04;;;;;;;;;;;21.90;49.40;;;;;;5033639;28;1981;-37
2022/03/02 05:53:30;;;;;;;;;;;21.90;49.40;;;;;;5032878;28;951;-37
2022/03/02 05:55:57;;;;;;;;;;;21.90;49.30;;;;;;5033475;28;1011;-37
2022/03/02 05:58:25;;;;;;;;;;;21.90;49.40;;;;;;5033480;28;980;-37
2022/03/02 06:00:52;;;;;;;;;;;21.90;49.40;;;;;;5031523;28;1010;-37
2022/03/02 06:03:20;;;;;;;;;;;21.90;49.40;;;;;;5032481;28;1171;-37
2022/03/02 06:05:49;;;;;;;;;;;21.90;49.40;;;;;;5032267;28;999;-37
2022/03/02 06:08:16;;;;;;;;;;;21.90;49.40;;;;;;5033347;28;1043;-37
2022/03/02 06:10:43;;;;;;;;;;;21.90;49.40;;;;;;5033684;28;976;-37
2022/03/02 06:13:10;;;;;;;;;;;21.90;49.40;;;;;;5031753;28;1902;-37
2022/03/02 06:15:37;;;;;;;;;;;21.80;49.40;;;;;;5030513;28;924;-37
2022/03/02 06:18:04;;;;;;;;;;;21.80;49.60;;;;;;5032853;28;996;-37
2022/03/02 06:20:31;;;;;;;;;;;21.80;49.50;;;;;;5035536;28;984;-37
2022/03/02 06:23:00;;;;;;;;;;;21.90;49.30;;;;;;5034746;28;970;-37
2022/03/02 06:25:27;;;;;;;;;;;21.90;49.30;;;;;;5029322;28;1519;-38
2022/03/02 06:27:54;;;;;;;;;;;21.90;49.40;;;;;;5034595;28;943;-37
2022/03/02 06:30:21;;;;;;;;;;;21.90;49.40;;;;;;5034325;28;986;-37
2022/03/02 06:32:48;;;;;;;;;;;21.90;49.40;;;;;;5034417;28;2009;-37
2022/03/02 06:35:15;;;;;;;;;;;21.90;49.50;;;;;;5035736;28;1014;-36
2022/03/02 06:37:41;;;;;;;;;;;21.80;49.40;;;;;;5035086;28;915;-37
2022/03/02 06:40:11;;;;;;;;;;;21.80;49.50;;;;;;5034860;28;964;-37
2022/03/02 06:42:42;;;;;;;;;;;21.80;50.10;;;;;;5035446;28;1101;-37
2022/03/02 06:45:12;;;;;;;;;;;21.80;49.50;;;;;;5035877;28;1042;-37
2022/03/02 06:47:42;;;;;;;;;;;21.80;49.60;;;;;;5035996;28;920;-38
2022/03/02 06:50:10;;;;;;;;;;;21.80;50.70;;;;;;5035570;28;984;-37
2022/03/02 06:52:37;;;;;;;;;;;21.80;49.60;;;;;;5020680;28;1898;-37
2022/03/02 06:55:06;;;;;;;;;;;21.80;49.50;;;;;;5016712;28;1030;-37
2022/03/02 06:57:34;;;;;;;;;;;21.80;49.50;;;;;;5015818;28;941;-36
2022/03/02 07:00:04;;;;;;;;;;;21.80;49.50;;;;;;5015824;28;1090;-37
2022/03/02 07:02:35;;;;;;;;;;;21.80;49.50;;;;;;5014967;28;952;-37
2022/03/02 07:05:05;;;;;;;;;;;21.80;49.50;;;;;;5014206;28;974;-37
2022/03/02 07:07:34;;;;;;;;;;;21.80;49.50;;;;;;5014438;28;1134;-37
2022/03/02 07:10:00;;;;;;;;;;;21.80;49.50;;;;;;5014724;28;998;-37
2022/03/02 07:12:28;;;;;;;;;;;21.80;49.50;;;;;;5013583;28;1906;-37
2022/03/02 07:14:57;;;;;;;;;;;21.80;49.50;;;;;;5013981;28;951;-37
2022/03/02 07:17:24;;;;;;;;;;;21.90;49.30;;;;;;5013757;28;1014;-40
2022/03/02 07:19:51;;;;;;;;;;;21.90;49.30;;;;;;5014251;28;976;-41
2022/03/02 07:22:19;;;;;;;;;;;21.90;49.20;;;;;;5014165;28;992;-42
2022/03/02 07:24:50;;;;;;;;;;;21.90;49.30;;;;;;5013694;28;1007;-35
2022/03/02 07:27:18;;;;;;;;;;;21.90;49.80;;;;;;5014019;28;940;-36
2022/03/02 07:29:45;;;;;;;;;;;21.90;49.60;;;;;;5013160;28;1027;-37
2022/03/02 07:32:14;;;;;;;;;;;21.90;49.60;;;;;;5014031;28;1888;-37
2022/03/02 07:34:42;;;;;;;;;;;21.80;49.70;;;;;;5012595;28;1349;-40
2022/03/02 07:37:09;;;;;;;;;;;21.90;49.50;;;;;;5013695;28;1046;-38
2022/03/02 07:39:36;;;;;;;;;;;21.90;50.80;;;;;;5013072;28;1035;-39
2022/03/02 07:42:03;;;;;;;;;;;21.80;49.70;;;;;;5013139;28;1121;-40
2022/03/02 07:44:30;;;;;;;;;;;21.80;49.60;;;;;;5012922;28;842;-40
2022/03/02 07:46:56;;;;;;;;;;;21.80;49.60;;;;;;5012940;28;969;-39
2022/03/02 07:49:25;;;;;;;;;;;21.90;49.60;;;;;;5012796;28;1050;-40
2022/03/02 07:51:55;;;;;;;;;;;21.80;49.50;;;;;;5012459;28;1926;-40
2022/03/02 07:54:22;;;;;;;;;;;21.80;49.40;;;;;;5012224;28;1003;-39
2022/03/02 07:56:51;;;;;;;;;;;21.80;49.50;;;;;;5011216;28;1015;-40
2022/03/02 07:59:18;;;;;;;;;;;21.80;49.50;;;;;;5012475;28;877;-40
2022/03/02 08:01:45;;;;;;;;;;;21.70;49.60;;;;;;5011893;28;994;-40
2022/03/02 08:04:12;;;;;;;;;;;21.70;49.60;;;;;;5012399;28;1022;-38
2022/03/02 08:06:41;;;;;;;;;;;21.70;49.60;;;;;;5012722;28;995;-40
2022/03/02 08:09:09;;;;;;;;;;;21.70;49.60;;;;;;5012205;28;983;-38
2022/03/02 08:11:37;;;;;;;;;;;21.70;49.50;;;;;;5012236;28;1906;-40
2022/03/02 08:14:04;;;;;;;;;;;21.70;49.50;;;;;;5012224;28;992;-40
2022/03/02 08:16:32;;;;;;;;;;;21.70;49.40;;;;;;5011904;28;1034;-40
2022/03/02 08:19:01;;;;;;;;;;;21.70;49.60;;;;;;5011114;28;1000;-40
2022/03/02 08:21:30;;;;;;;;;;;21.70;49.60;;;;;;5010738;28;1034;-40
2022/03/02 08:23:59;;;;;;;;;;;21.70;49.60;;;;;;5011092;28;996;-38
2022/03/02 08:26:26;;;;;;;;;;;21.70;49.50;;;;;;5011310;28;924;-40
2022/03/02 08:28:54;;;;;;;;;;;21.70;49.50;;;;;;5012167;28;987;-40
2022/03/02 08:31:22;;;;;;;;;;;21.80;49.50;;;;;;5014161;28;944;-39
2022/03/02 08:33:49;;;;;;;;;;;21.70;49.30;;;;;;5013406;28;1977;-40
2022/03/02 08:36:16;;;;;;;;;;;21.70;49.40;;;;;;5013611;28;1019;-40
2022/03/02 08:38:44;;;;;;;;;;;21.70;49.40;;;;;;5011261;28;1015;-40
2022/03/02 08:41:12;;;;;;;;;;;21.70;49.30;;;;;;5010008;28;1364;-41
2022/03/02 08:43:39;;;;;;;;;;;21.70;49.40;;;;;;5010724;28;999;-40
2022/03/02 08:46:07;;;;;;;;;;;21.70;49.40;;;;;;5011351;28;880;-40
2022/03/02 08:48:34;;;;;;;;;;;21.70;49.40;;;;;;5011387;28;1010;-40
2022/03/02 08:51:01;;;;;;;;;;;21.70;49.50;;;;;;5011820;28;1000;-40
2022/03/02 08:53:27;;;;;;;;;;;21.70;49.40;;;;;;5011638;28;1972;-40
2022/03/02 08:55:56;;;;;;;;;;;21.70;49.50;;;;;;5060875;28;1081;-40
2022/03/02 08:58:26;;;;;;;;;;;21.70;49.40;;;;;;5116441;28;1032;-40
2022/03/02 09:00:53;;;;;;;;;;;21.70;49.50;;;;;;5115873;28;1090;-40
2022/03/02 09:03:22;;;;;;;;;;;21.70;49.50;;;;;;5114953;28;1362;-40
2022/03/02 09:05:49;;;;;;;;;;;21.70;49.40;;;;;;5114187;28;976;-40
2022/03/02 09:08:15;;;;;;;;;;;21.70;49.50;;;;;;5095267;28;1169;-38
2022/03/02 09:10:42;;;;;;;;;;;21.70;49.30;;;;;;5095328;28;1017;-40
2022/03/02 09:13:10;;;;;;;;;;;21.70;49.40;;;;;;5096070;28;1898;-39
2022/03/02 09:15:38;;;;;;;;;;;21.70;49.40;;;;;;5097028;28;998;-39
2022/03/02 09:18:05;;;;;;;;;;;21.70;49.50;;;;;;5095766;28;1035;-40
2022/03/02 09:20:31;;;;;;;;;;;21.70;49.20;;;;;;5095464;28;1782;-40
2022/03/02 09:23:01;;;;;;;;;;;21.70;50.50;;;;;;5095189;28;992;-39
2022/03/02 09:25:29;;;;;;;;;;;21.70;49.40;;;;;;5094089;28;984;-39
2022/03/02 09:27:57;;;;;;;;;;;21.70;49.40;;;;;;5093936;28;1023;-40
2022/03/02 09:30:24;;;;;;;;;;;21.70;49.30;;;;;;5093603;28;985;-40
2022/03/02 09:32:53;;;;;;;;;;;21.70;49.40;;;;;;5094494;28;1879;-40
2022/03/02 09:35:21;;;;;;;;;;;21.70;49.20;;;;;;5094244;28;1024;-39
2022/03/02 09:37:49;;;;;;;;;;;21.80;49.20;;;;;;5093607;28;992;-44
2022/03/02 09:40:21;;;;;;;;;;;21.70;49.10;;;;;;5093798;28;1006;-40
2022/03/02 09:42:54;;;;;;;;;;;21.70;49.20;;;;;;5093781;28;907;-44
2022/03/02 09:45:21;;;;;;;;;;;21.70;49.20;;;;;;5094924;28;996;-41
2022/03/02 09:47:50;;;;;;;;;;;21.70;49.20;;;;;;5095333;28;854;-41
2022/03/02 09:50:19;;;;;;;;;;;21.70;49.20;;;;;;5095106;28;995;-40
2022/03/02 09:52:47;;;;;;;;;;;21.70;49.30;;;;;;5096815;28;1906;-43
2022/03/02 09:55:14;;;;;;;;;;;21.70;49.30;;;;;;5098787;28;978;-43
2022/03/02 09:57:42;;;;;;;;;;;21.70;49.30;;;;;;5098897;28;972;-43
2022/03/02 10:00:10;;;;;;;;;;;21.70;49.40;;;;;;5099340;28;1076;-43
2022/03/02 10:02:38;;;;;;;;;;;21.70;49.30;;;;;;5099716;28;1031;-44
2022/03/02 10:05:06;;;;;;;;;;;21.70;49.20;;;;;;5099284;28;1007;-39
2022/03/02 10:07:36;;;;;;;;;;;21.70;49.30;;;;;;5111248;28;1035;-45
2022/03/02 10:10:05;;;;;;;;;;;21.80;49.30;;;;;;5120949;28;1007;-43
2022/03/02 10:12:32;;;;;;;;;;;21.70;49.20;;;;;;5120355;28;1980;-43
2022/03/02 10:14:59;;;;;;;;;;;21.70;49.30;;;;;;5119818;28;898;-44
2022/03/02 10:17:31;;;;;;;;;;;21.70;49.20;;;;;;5119514;28;1000;-44
2022/03/02 10:20:01;;;;;;;;;;;21.70;49.30;;;;;;5119495;28;968;-44
2022/03/02 10:22:37;;;;;;;;;;;21.70;49.20;;;;;;5119961;28;991;-43
2022/03/02 10:25:07;;;;;;;;;;;21.70;49.20;;;;;;5119623;28;980;-43
2022/03/02 10:27:35;;;;;;;;;;;21.70;49.30;;;;;;5119874;28;992;-44
2022/03/02 10:30:05;;;;;;;;;;;21.70;49.30;;;;;;5119642;28;975;-43
2022/03/02 10:32:33;;;;;;;;;;;21.70;49.20;;;;;;5120134;28;1914;-40
2022/03/02 10:35:03;;;;;;;;;;;21.70;49.20;;;;;;5119318;28;1028;-40
2022/03/02 10:37:30;;;;;;;;;;;21.70;49.20;;;;;;5120505;28;932;-40
2022/03/02 10:40:05;;;;;;;;;;;21.70;49.20;;;;;;5119518;28;912;-41
2022/03/02 10:42:35;;;;;;;;;;;21.70;49.30;;;;;;5119801;28;913;-40
2022/03/02 10:45:10;;;;;;;;;;;21.70;50.40;;;;;;5119531;28;1011;-41
2022/03/02 10:47:39;;;;;;;;;;;21.70;49.20;;;;;;5119891;28;999;-41
2022/03/02 10:50:06;;;;;;;;;;;21.70;49.20;;;;;;5119780;28;927;-41
2022/03/02 10:52:36;;;;;;;;;;;21.70;50.30;;;;;;5119279;28;1902;-40
2022/03/02 10:55:04;;;;;;;;;;;21.70;49.20;;;;;;5119015;28;976;-39
2022/03/02 10:57:33;;;;;;;;;;;21.70;49.20;;;;;;5117344;28;1047;-40
2022/03/02 11:00:03;;;;;;;;;;;21.70;49.20;;;;;;5117235;28;937;-40
2022/03/02 11:02:31;;;;;;;;;;;21.70;49.30;;;;;;5116090;28;857;-40
2022/03/02 11:04:59;;;;;;;;;;;21.70;49.20;;;;;;5117604;28;920;-40
2022/03/02 11:07:27;;;;;;;;;;;21.70;49.30;;;;;;5116445;28;1092;-40
2022/03/02 11:09:53;;;;;;;;;;;21.60;49.40;;;;;;5117887;28;992;-41
2022/03/02 11:12:21;;;;;;;;;;;21.70;49.20;;;;;;5118448;28;1010;-42
2022/03/02 11:14:55;;;;;;;;;;;21.70;49.20;;;;;;5116530;28;1910;-40
2022/03/02 11:17:23;;;;;;;;;;;21.70;49.30;;;;;;5117340;28;988;-41
2022/03/02 11:19:50;;;;;;;;;;;21.70;49.40;;;;;;5116774;28;1010;-41
2022/03/02 11:22:19;;;;;;;;;;;21.70;49.30;;;;;;5117904;28;996;-40
2022/03/02 11:24:46;;;;;;;;;;;21.70;49.30;;;;;;5117967;28;983;-41
2022/03/02 11:27:26;;;;;;;;;;;21.60;49.30;;;;;;5118885;28;901;-41
2022/03/02 11:30:01;;;;;;;;;;;21.70;49.30;;;;;;5116499;28;977;-40
2022/03/02 11:32:29;;;;;;;;;;;21.70;49.30;;;;;;5118346;28;892;-41
2022/03/02 11:34:58;;;;;;;;;;;21.70;49.20;;;;;;5119970;28;1978;-41
2022/03/02 11:37:25;;;;;;;;;;;21.70;49.20;;;;;;5119823;28;1034;-41
2022/03/02 11:39:52;;;;;;;;;;;21.70;49.30;;;;;;5117732;28;1004;-41
2022/03/02 11:42:27;;;;;;;;;;;21.70;49.40;;;;;;5117119;28;957;-41
2022/03/02 11:44:56;;;;;;;;;;;21.70;49.40;;;;;;5116699;28;945;-40
2022/03/02 11:47:24;;;;;;;;;;;21.60;49.40;;;;;;5117188;28;703;-41
2022/03/02 11:49:53;;;;;;;;;;;21.70;49.40;;;;;;5117968;28;1025;-40
2022/03/02 11:52:21;;;;;;;;;;;21.70;49.40;;;;;;5117111;28;893;-40
2022/03/02 11:54:49;;;;;;;;;;;21.70;49.30;;;;;;5116663;28;2031;-41
2022/03/02 11:57:16;;;;;;;;;;;21.70;49.20;;;;;;5117757;28;705;-40
2022/03/02 11:59:43;;;;;;;;;;;21.70;49.30;;;;;;5115190;28;941;-40
2022/03/02 12:02:14;;;;;;;;;;;21.60;49.30;;;;;;5115194;28;936;-44
2022/03/02 12:04:41;;;;;;;;;;;21.70;49.30;;;;;;5114161;28;921;-44
2022/03/02 12:07:09;;;;;;;;;;;21.70;49.30;;;;;;5114922;28;1090;-44
2022/03/02 12:09:38;;;;;;;;;;;21.70;49.30;;;;;;5115977;28;972;-43
2022/03/02 12:12:08;;;;;;;;;;;21.60;49.20;;;;;;5116511;28;1009;-43
2022/03/02 12:14:39;;;;;;;;;;;21.60;49.30;;;;;;5117159;28;1906;-46
2022/03/02 12:17:12;;;;;;;;;;;21.60;49.20;;;;;;5116246;28;915;-43
2022/03/02 12:19:39;;;;;;;;;;;21.60;49.20;;;;;;5115434;28;1067;-44
2022/03/02 12:22:06;;;;;;;;;;;21.60;49.30;;;;;;5116243;28;950;-43
2022/03/02 12:24:35;;;;;;;;;;;21.60;49.20;;;;;;5116193;28;1015;-43
2022/03/02 12:27:04;;;;;;;;;;;21.60;49.10;;;;;;5116796;28;1094;-44
2022/03/02 12:29:31;;;;;;;;;;;21.60;49.20;;;;;;5116144;28;956;-44
2022/03/02 12:32:06;;;;;;;;;;;21.60;49.20;;;;;;5115668;28;1016;-44
2022/03/02 12:34:34;;;;;;;;;;;21.60;49.20;;;;;;5116113;28;1906;-44
2022/03/02 12:37:01;;;;;;;;;;;21.60;49.30;;;;;;5115897;28;1000;-44
2022/03/02 12:39:28;;;;;;;;;;;21.60;49.20;;;;;;5115910;28;980;-44
2022/03/02 12:41:56;;;;;;;;;;;21.60;49.30;;;;;;5117444;28;998;-44
2022/03/02 12:44:23;;;;;;;;;;;21.60;49.20;;;;;;5116797;28;1409;-44
2022/03/02 12:46:53;;;;;;;;;;;21.60;49.20;;;;;;5116453;28;1014;-43
2022/03/02 12:49:25;;;;;;;;;;;21.60;49.30;;;;;;5115290;28;1075;-44
2022/03/02 12:51:53;;;;;;;;;;;21.60;49.30;;;;;;5116204;28;1330;-44
2022/03/02 12:54:20;;;;;;;;;;;21.60;49.20;;;;;;5115802;28;1906;-44
2022/03/02 12:56:47;;;;;;;;;;;21.60;49.20;;;;;;5115842;28;1024;-43
2022/03/02 12:59:16;;;;;;;;;;;21.60;49.40;;;;;;5115879;28;952;-44
2022/03/02 13:01:44;;;;;;;;;;;21.60;49.20;;;;;;5116965;28;1019;-43
2022/03/02 13:04:11;;;;;;;;;;;21.60;49.40;;;;;;5115719;28;925;-43
2022/03/02 13:06:41;;;;;;;;;;;21.60;49.20;;;;;;5114519;28;1021;-44
2022/03/02 13:09:09;;;;;;;;;;;21.60;49.20;;;;;;5115589;28;961;-44
2022/03/02 13:11:37;;;;;;;;;;;21.50;49.30;;;;;;5112407;28;1066;-43
2022/03/02 13:14:04;;;;;;;;;;;21.60;49.20;;;;;;5114915;28;1893;-44
2022/03/02 13:16:37;;;;;;;;;;;21.60;49.40;;;;;;5116384;28;937;-44
2022/03/02 13:19:15;;;;;;;;;;;21.60;49.30;;;;;;5116605;28;1027;-44
2022/03/02 13:21:42;;;;;;;;;;;21.60;49.30;;;;;;5116207;28;956;-44
2022/03/02 13:24:10;;;;;;;;;;;21.60;49.60;;;;;;5115983;28;945;-43
2022/03/02 13:26:38;;;;;;;;;;;21.60;49.30;;;;;;5115899;28;980;-44
2022/03/02 13:29:06;;;;;;;;;;;21.60;49.30;;;;;;5120617;28;953;-44
2022/03/02 13:31:48;;;;;;;;;;;21.60;49.20;;;;;;5120559;28;1414;-43
2022/03/02 13:34:17;;;;;;;;;;;21.60;49.30;;;;;;5119789;28;1894;-44
2022/03/02 13:36:46;;;;;;;;;;;21.60;49.20;;;;;;5120901;28;988;-44
2022/03/02 13:39:14;;;;;;;;;;;21.60;49.20;;;;;;5120102;28;949;-43
2022/03/02 13:41:42;;;;;;;;;;;21.60;49.20;;;;;;5120424;28;984;-43
2022/03/02 13:44:36;;;;;;;;;;;21.60;49.20;;;;;;5120654;28;1000;-43
2022/03/02 13:47:30;;;;;;;;;;;21.60;49.20;;;;;;5119911;28;1097;-44
2022/03/02 13:50:03;;;;;;;;;;;21.60;49.40;;;;;;5120185;28;982;-44
2022/03/02 13:52:49;;;;;;;;;;;21.60;49.30;;;;;;5120276;28;939;-44
2022/03/02 13:55:35;;;;;;;;;;;21.60;49.20;;;;;;5119096;28;2042;-43
2022/03/02 13:58:26;;;;;;;;;;;21.60;49.30;;;;;;5119182;28;945;-44
2022/03/02 14:00:53;;;;;;;;;;;21.60;49.30;;;;;;5103339;28;1013;-44
2022/03/02 14:03:27;;;;;;;;;;;21.60;49.40;;;;;;5118668;28;936;-44
2022/03/02 14:05:56;;;;;;;;;;;21.60;49.30;;;;;;5119280;28;1021;-43
2022/03/02 14:08:23;;;;;;;;;;;21.60;49.20;;;;;;5118836;28;1220;-44
2022/03/02 14:10:49;;;;;;;;;;;21.60;49.40;;;;;;5119601;28;1014;-44
2022/03/02 14:13:17;;;;;;;;;;;21.60;49.30;;;;;;5117876;28;1034;-44
2022/03/02 14:15:44;;;;;;;;;;;21.60;49.30;;;;;;5119520;28;1897;-44
2022/03/02 14:18:15;;;;;;;;;;;21.60;49.30;;;;;;5118637;28;957;-46
2022/03/02 14:20:42;;;;;;;;;;;21.70;50.40;;;;;;5119199;28;925;-42
2022/03/02 14:23:12;;;;;;;;;;;21.70;49.20;;;;;;5119735;28;1019;-44
2022/03/02 14:25:39;;;;;;;;;;;21.70;49.20;;;;;;5119187;28;1257;-43
2022/03/02 14:28:08;;;;;;;;;;;21.70;49.10;;;;;;5118496;28;925;-43
2022/03/02 14:30:36;;;;;;;;;;;21.80;47.60;;;;;;5118400;28;1028;-38
2022/03/02 14:33:10;;;;;;;;;;;21.80;48.10;;;;;;5119149;28;1030;-40
2022/03/02 14:35:37;;;;;;;;;;;21.80;48.40;;;;;;5119142;28;1981;-41
2022/03/02 14:38:05;;;;;;;;;;;21.80;48.60;;;;;;5117376;28;932;-38
2022/03/02 14:40:33;;;;;;;;;;;21.80;48.60;;;;;;5117966;28;892;-41
2022/03/02 14:43:01;;;;;;;;;;;21.80;48.70;;;;;;5118670;28;941;-39
2022/03/02 14:45:29;;;;;;;;;;;21.80;48.80;;;;;;5118368;28;1040;-39